Time;durP1;ratioP1;P1;durP2;ratioP2;P2;SDS_P1;SDS_P2;PMS_P1;PMS_P2;Temp;Humidity;BMP_temperature;BMP_pressure;BME280_temperature;BME280_humidity;BME280_pressure;Samples;Min_cycle;Max_cycle;Signal;HPM_P1;HPM_P2
2021/11/13 00:00:00;;;;;;;37.70;19.88;;;10.70;99.90;;;;;;5033778;28;20218;-78
2021/11/13 00:02:26;;;;;;;41.15;19.88;;;10.60;99.90;;;;;;5033606;28;20799;-78
2021/11/13 00:04:52;;;;;;;44.20;19.63;;;10.70;99.90;;;;;;5033449;28;20251;-78
2021/11/13 00:07:18;;;;;;;40.60;19.73;;;10.70;99.90;;;;;;5033852;28;20250;-78
2021/11/13 00:09:44;;;;;;;34.90;18.42;;;10.70;99.90;;;;;;5033387;28;20172;-78
2021/11/13 00:12:10;;;;;;;30.98;19.17;;;10.70;99.90;;;;;;5033481;28;20183;-79
2021/11/13 00:14:36;;;;;;;32.58;18.67;;;10.80;99.90;;;;;;5033295;28;20176;-79
2021/11/13 00:17:02;;;;;;;34.92;19.10;;;10.60;99.90;;;;;;5033375;28;20187;-79
2021/11/13 00:19:29;;;;;;;36.78;18.52;;;10.70;99.90;;;;;;5033409;28;20207;-78
2021/11/13 00:21:55;;;;;;;30.88;17.67;;;10.70;99.90;;;;;;5033238;28;20184;-78
2021/11/13 00:24:21;;;;;;;38.40;18.70;;;10.60;99.90;;;;;;5033073;28;20542;-78
2021/11/13 00:26:47;;;;;;;34.45;17.95;;;10.70;99.90;;;;;;5033224;28;20164;-78
2021/11/13 00:29:13;;;;;;;40.03;17.60;;;10.80;99.90;;;;;;5033328;28;20218;-78
2021/11/13 00:31:38;;;;;;;30.70;18.70;;;10.70;99.90;;;;;;5033150;28;20187;-79
2021/11/13 00:34:05;;;;;;;40.53;18.80;;;10.70;99.90;;;;;;5032803;28;20553;-80
2021/11/13 00:36:30;;;;;;;32.03;19.10;;;10.80;99.90;;;;;;5033158;28;20202;-78
2021/11/13 00:38:56;;;;;;;34.40;18.17;;;10.80;99.90;;;;;;5032112;28;20283;-78
2021/11/13 00:41:22;;;;;;;36.78;18.77;;;10.70;99.90;;;;;;5033196;28;20188;-78
2021/11/13 00:43:48;;;;;;;36.13;19.63;;;10.70;99.90;;;;;;5032254;28;20164;-78
2021/11/13 00:46:14;;;;;;;28.85;17.63;;;10.80;99.90;;;;;;5033223;28;20509;-78
2021/11/13 00:48:40;;;;;;;38.75;17.15;;;10.80;99.90;;;;;;5033163;28;20175;-78
2021/11/13 00:51:06;;;;;;;30.95;19.30;;;10.70;99.90;;;;;;5032819;28;20199;-80
2021/11/13 00:53:32;;;;;;;36.40;18.80;;;10.80;99.90;;;;;;5033188;28;20167;-79
2021/11/13 00:55:59;;;;;;;34.00;17.92;;;10.90;99.90;;;;;;5032875;28;20173;-79
2021/11/13 00:58:26;;;;;;;33.58;18.45;;;10.70;99.90;;;;;;5033150;28;20269;-79
2021/11/13 01:00:53;;;;;;;30.95;17.92;;;10.70;99.90;;;;;;5031633;28;20180;-79
2021/11/13 01:03:19;;;;;;;34.78;18.42;;;10.90;99.90;;;;;;5032604;28;20179;-79
2021/11/13 01:05:45;;;;;;;32.40;17.33;;;10.90;99.90;;;;;;5032484;28;20573;-79
2021/11/13 01:08:11;;;;;;;37.53;18.10;;;10.70;99.90;;;;;;5032671;28;20168;-79
2021/11/13 01:10:38;;;;;;;28.90;17.63;;;10.80;99.90;;;;;;5032977;28;20642;-79
2021/11/13 01:13:03;;;;;;;27.35;17.60;;;10.80;99.90;;;;;;5032381;28;20172;-80
2021/11/13 01:15:29;;;;;;;33.40;15.93;;;10.80;99.90;;;;;;5032432;28;20698;-80
2021/11/13 01:17:56;;;;;;;29.02;17.20;;;10.90;99.90;;;;;;5032487;28;20199;-78
2021/11/13 01:20:24;;;;;;;28.52;16.17;;;10.90;99.90;;;;;;5032458;28;20187;-79
2021/11/13 01:22:50;;;;;;;25.42;15.25;;;10.90;99.90;;;;;;5032583;28;20171;-79
2021/11/13 01:25:16;;;;;;;27.80;16.50;;;10.90;99.90;;;;;;5031895;28;20194;-78
2021/11/13 01:27:42;;;;;;;29.00;16.88;;;10.90;99.90;;;;;;5032577;28;20164;-78
2021/11/13 01:30:09;;;;;;;35.47;17.33;;;10.90;99.90;;;;;;5032219;28;20203;-78
2021/11/13 01:32:36;;;;;;;27.58;17.17;;;10.90;99.90;;;;;;5032275;28;20254;-78
2021/11/13 01:35:03;;;;;;;29.75;16.42;;;10.90;99.90;;;;;;5032357;28;20175;-79
2021/11/13 01:37:28;;;;;;;31.40;16.83;;;10.90;99.90;;;;;;5031999;28;20191;-79
2021/11/13 01:39:54;;;;;;;29.88;15.98;;;10.90;99.90;;;;;;5031884;28;20174;-80
2021/11/13 01:42:25;;;;;;;23.98;15.60;;;10.80;99.90;;;;;;5032159;28;20250;-79
2021/11/13 01:44:54;;;;;;;28.45;17.73;;;10.80;99.90;;;;;;5032003;28;20596;-79
2021/11/13 01:47:21;;;;;;;31.67;16.52;;;10.90;99.90;;;;;;5032245;28;20163;-79
2021/11/13 01:49:47;;;;;;;25.25;16.20;;;10.90;99.90;;;;;;5031861;28;20210;-79
2021/11/13 01:52:14;;;;;;;33.17;16.80;;;11.00;99.90;;;;;;5031727;28;20196;-82
2021/11/13 01:54:41;;;;;;;31.45;17.48;;;11.00;99.90;;;;;;5032543;28;20640;-78
2021/11/13 01:57:11;;;;;;;33.67;17.70;;;11.10;99.90;;;;;;5032144;28;20526;-79
2021/11/13 01:59:39;;;;;;;33.78;16.75;;;11.00;99.90;;;;;;5032397;28;20274;-79
2021/11/13 02:02:06;;;;;;;23.00;16.38;;;11.10;99.90;;;;;;5030917;28;20624;-79
2021/11/13 02:04:32;;;;;;;28.63;15.88;;;11.10;99.90;;;;;;5032124;28;20168;-79
2021/11/13 02:06:58;;;;;;;35.33;16.50;;;11.20;99.90;;;;;;5032283;28;20167;-79
2021/11/13 02:09:26;;;;;;;33.78;16.00;;;11.30;99.90;;;;;;5031875;28;20171;-78
2021/11/13 02:11:53;;;;;;;23.58;15.05;;;11.30;99.90;;;;;;5031871;28;20188;-80
2021/11/13 02:14:19;;;;;;;32.45;15.77;;;11.50;99.90;;;;;;5032219;28;20251;-79
2021/11/13 02:16:44;;;;;;;24.92;15.18;;;11.60;99.90;;;;;;5031995;28;20247;-79
2021/11/13 02:19:10;;;;;;;31.50;13.45;;;11.50;99.90;;;;;;5031879;28;20207;-78
2021/11/13 02:21:36;;;;;;;23.55;13.00;;;11.50;99.90;;;;;;5031752;28;20696;-79
2021/11/13 02:24:02;;;;;;;18.13;13.27;;;11.60;99.90;;;;;;5032648;28;20194;-78
2021/11/13 02:26:28;;;;;;;23.98;13.10;;;11.50;99.90;;;;;;5032460;28;20167;-78
2021/11/13 02:28:55;;;;;;;24.92;12.93;;;11.40;99.90;;;;;;5032291;28;20693;-78
2021/11/13 02:31:37;;;;;;;21.13;11.50;;;11.40;99.90;;;;;;5030886;28;20274;-79
2021/11/13 02:34:05;;;;;;;13.10;11.45;;;11.30;99.90;;;;;;5030944;28;20195;-78
2021/11/13 02:36:31;;;;;;;20.30;12.07;;;11.30;99.90;;;;;;5033266;28;20160;-79
2021/11/13 02:38:58;;;;;;;23.85;12.60;;;11.40;99.90;;;;;;5035586;28;20215;-79
2021/11/13 02:41:27;;;;;;;24.42;12.52;;;11.40;99.90;;;;;;5035428;28;20183;-78
2021/11/13 02:43:53;;;;;;;16.85;12.50;;;11.40;99.90;;;;;;5035506;28;20259;-79
2021/11/13 02:46:25;;;;;;;18.33;12.30;;;11.40;99.90;;;;;;5035293;28;20207;-78
2021/11/13 02:48:50;;;;;;;18.75;11.68;;;11.50;99.90;;;;;;5035480;28;20176;-78
2021/11/13 02:51:16;;;;;;;27.88;11.50;;;11.50;99.90;;;;;;5035159;28;20267;-80
2021/11/13 02:53:44;;;;;;;18.70;11.55;;;11.50;99.90;;;;;;5035263;28;20179;-79
2021/11/13 02:56:11;;;;;;;19.92;10.82;;;11.50;99.90;;;;;;5034793;28;20526;-78
2021/11/13 02:58:38;;;;;;;16.05;10.85;;;11.50;99.90;;;;;;5033632;28;20215;-79
2021/11/13 03:01:13;;;;;;;11.10;9.98;;;11.50;99.90;;;;;;5035009;28;20215;-79
2021/11/13 03:03:39;;;;;;;15.23;9.48;;;11.50;99.90;;;;;;5035021;28;20174;-79
2021/11/13 03:06:13;;;;;;;13.50;9.63;;;11.60;99.90;;;;;;5034660;28;20602;-78
2021/11/13 03:08:40;;;;;;;9.18;7.95;;;11.70;99.90;;;;;;5034771;28;20603;-78
2021/11/13 03:11:08;;;;;;;8.43;6.70;;;11.70;99.90;;;;;;5034821;28;20270;-78
2021/11/13 03:13:37;;;;;;;8.80;6.95;;;11.80;99.90;;;;;;5034720;28;20686;-78
2021/11/13 03:16:05;;;;;;;12.07;6.93;;;11.90;99.90;;;;;;5034817;28;20164;-79
2021/11/13 03:18:32;;;;;;;7.85;6.13;;;11.90;99.90;;;;;;5034372;28;20203;-80
2021/11/13 03:20:58;;;;;;;10.90;6.55;;;11.90;99.90;;;;;;5034529;28;20183;-79
2021/11/13 03:23:25;;;;;;;6.38;5.78;;;11.90;99.90;;;;;;5034967;28;20186;-79
2021/11/13 03:25:59;;;;;;;10.52;6.40;;;11.90;99.90;;;;;;5034491;28;20517;-81
2021/11/13 03:28:26;;;;;;;9.88;5.93;;;12.00;99.90;;;;;;5034592;28;20172;-78
2021/11/13 03:30:52;;;;;;;5.70;5.20;;;12.00;99.90;;;;;;5032928;28;20198;-78
2021/11/13 03:33:18;;;;;;;7.13;5.07;;;12.00;99.90;;;;;;5034553;28;20184;-79
2021/11/13 03:35:44;;;;;;;6.15;4.90;;;12.00;99.90;;;;;;5034255;28;20218;-78
2021/11/13 03:38:16;;;;;;;4.75;3.80;;;11.90;99.90;;;;;;5034274;28;20203;-80
2021/11/13 03:40:44;;;;;;;4.22;3.83;;;12.00;99.90;;;;;;5033316;28;20184;-79
2021/11/13 03:43:10;;;;;;;3.70;3.33;;;11.80;99.90;;;;;;5034437;28;20202;-78
2021/11/13 03:45:37;;;;;;;4.63;3.60;;;11.90;99.90;;;;;;5034203;28;20160;-78
2021/11/13 03:48:03;;;;;;;3.45;3.10;;;12.00;99.90;;;;;;5033663;28;20179;-79
2021/11/13 03:50:29;;;;;;;4.75;3.78;;;11.90;99.90;;;;;;5033798;28;20373;-78
2021/11/13 03:52:55;;;;;;;5.40;4.15;;;11.90;99.90;;;;;;5033936;28;20624;-79
2021/11/13 03:55:22;;;;;;;4.70;4.30;;;11.90;99.90;;;;;;5033977;28;20650;-78
2021/11/13 03:57:48;;;;;;;7.68;5.28;;;12.00;99.90;;;;;;5034137;28;20220;-79
2021/11/13 04:00:15;;;;;;;6.90;5.43;;;12.00;99.90;;;;;;5034138;28;20192;-79
2021/11/13 04:02:44;;;;;;;8.18;6.05;;;12.00;99.90;;;;;;5033696;28;20279;-79
2021/11/13 04:05:10;;;;;;;5.82;5.20;;;11.90;99.90;;;;;;5033704;28;20168;-78
2021/11/13 04:07:35;;;;;;;7.07;5.95;;;12.00;99.90;;;;;;5033477;28;20230;-79
2021/11/13 04:10:04;;;;;;;7.20;6.13;;;12.10;99.90;;;;;;5033710;28;20187;-78
2021/11/13 04:12:30;;;;;;;6.93;6.22;;;12.20;99.90;;;;;;5033654;28;20172;-78
2021/11/13 04:14:56;;;;;;;10.98;6.97;;;12.20;99.90;;;;;;5033411;28;20171;-80
2021/11/13 04:17:21;;;;;;;7.07;5.95;;;12.00;99.90;;;;;;5033406;28;20164;-78
2021/11/13 04:19:47;;;;;;;13.98;6.72;;;11.90;99.90;;;;;;5031984;28;20176;-77
2021/11/13 04:22:13;;;;;;;6.68;6.05;;;11.90;99.90;;;;;;5033298;28;20164;-79
2021/11/13 04:24:38;;;;;;;6.90;6.05;;;11.90;99.90;;;;;;5033429;28;20168;-78
2021/11/13 04:27:04;;;;;;;10.80;6.47;;;12.00;99.90;;;;;;5033512;28;20172;-79
2021/11/13 04:29:30;;;;;;;6.82;6.22;;;11.90;99.90;;;;;;5033067;28;20168;-78
2021/11/13 04:31:55;;;;;;;6.78;5.72;;;12.00;99.90;;;;;;5033099;28;20195;-78
2021/11/13 04:34:23;;;;;;;10.85;6.32;;;12.00;99.90;;;;;;5033170;28;20186;-78
2021/11/13 04:36:54;;;;;;;7.88;5.75;;;12.00;99.90;;;;;;5032988;28;20226;-79
2021/11/13 04:39:23;;;;;;;12.27;6.72;;;12.10;99.90;;;;;;5032828;28;20207;-78
2021/11/13 04:41:49;;;;;;;11.82;6.28;;;12.00;99.90;;;;;;5031756;28;20235;-79
2021/11/13 04:44:15;;;;;;;7.57;6.22;;;12.00;99.90;;;;;;5032895;28;20164;-78
2021/11/13 04:46:41;;;;;;;6.97;5.78;;;11.90;99.90;;;;;;5032832;28;20246;-79
2021/11/13 04:49:07;;;;;;;11.57;6.85;;;12.00;99.90;;;;;;5033066;28;20309;-78
2021/11/13 04:51:32;;;;;;;9.43;5.75;;;11.90;99.90;;;;;;5032867;28;20258;-79
2021/11/13 04:53:58;;;;;;;6.60;5.82;;;11.90;99.90;;;;;;5032937;28;20590;-79
2021/11/13 04:56:24;;;;;;;14.48;5.65;;;11.80;99.90;;;;;;5032930;28;20205;-78
2021/11/13 04:58:49;;;;;;;8.27;6.28;;;12.00;99.90;;;;;;5031512;28;20207;-80
2021/11/13 05:01:15;;;;;;;6.20;5.47;;;12.00;99.90;;;;;;5031861;28;20576;-78
2021/11/13 05:03:41;;;;;;;10.02;5.85;;;12.10;99.90;;;;;;5032743;28;20179;-79
2021/11/13 05:06:06;;;;;;;7.65;5.55;;;12.00;99.90;;;;;;5032700;28;20516;-79
2021/11/13 05:08:32;;;;;;;8.48;6.53;;;12.10;99.90;;;;;;5032704;28;20168;-79
2021/11/13 05:10:58;;;;;;;10.15;5.63;;;12.10;99.90;;;;;;5032517;28;20195;-79
2021/11/13 05:13:23;;;;;;;9.73;5.72;;;12.20;99.90;;;;;;5031366;28;20183;-79
2021/11/13 05:15:49;;;;;;;6.38;5.78;;;12.20;99.90;;;;;;5032562;28;20168;-78
2021/11/13 05:18:15;;;;;;;12.73;6.38;;;12.10;99.90;;;;;;5032448;28;20232;-79
2021/11/13 05:20:40;;;;;;;7.85;5.70;;;12.10;99.90;;;;;;5032526;28;20183;-79
2021/11/13 05:23:06;;;;;;;10.45;6.75;;;12.30;99.90;;;;;;5032428;28;20580;-78
2021/11/13 05:25:32;;;;;;;7.35;6.43;;;12.40;99.90;;;;;;5032475;28;20222;-79
2021/11/13 05:27:59;;;;;;;6.68;5.97;;;12.30;99.90;;;;;;5032401;28;20171;-79
2021/11/13 05:30:26;;;;;;;7.10;5.53;;;12.20;99.90;;;;;;5031811;28;20180;-79
2021/11/13 05:32:53;;;;;;;10.25;6.53;;;12.20;99.90;;;;;;5030974;28;20172;-78
2021/11/13 05:35:19;;;;;;;7.85;7.13;;;12.20;99.90;;;;;;5032316;28;20164;-81
2021/11/13 05:37:48;;;;;;;7.75;6.88;;;12.10;99.90;;;;;;5032393;28;20196;-78
2021/11/13 05:40:14;;;;;;;11.27;6.53;;;12.20;99.90;;;;;;5032531;28;20195;-79
2021/11/13 05:42:41;;;;;;;12.45;6.50;;;12.10;99.90;;;;;;5032286;28;20230;-79
2021/11/13 05:45:09;;;;;;;7.70;6.70;;;12.10;99.90;;;;;;5032513;28;20174;-79
2021/11/13 05:47:35;;;;;;;8.52;6.93;;;12.20;99.90;;;;;;5032254;28;20255;-79
2021/11/13 05:50:06;;;;;;;11.13;7.38;;;12.20;99.90;;;;;;5030471;28;20297;-78
2021/11/13 05:52:31;;;;;;;9.98;7.32;;;12.40;99.90;;;;;;5032088;28;20175;-79
2021/11/13 05:54:57;;;;;;;9.23;6.07;;;12.30;99.90;;;;;;5032117;28;20171;-79
2021/11/13 05:57:22;;;;;;;7.88;6.80;;;12.30;99.90;;;;;;5032187;28;20191;-79
2021/11/13 05:59:48;;;;;;;8.85;6.60;;;12.40;99.90;;;;;;5031470;28;20255;-78
2021/11/13 06:02:14;;;;;;;11.70;6.93;;;12.50;99.90;;;;;;5031751;28;20160;-78
2021/11/13 06:04:39;;;;;;;7.85;6.95;;;12.60;99.90;;;;;;5032068;28;20168;-79
2021/11/13 06:07:05;;;;;;;8.13;7.22;;;12.70;99.90;;;;;;5031780;28;20234;-78
2021/11/13 06:09:31;;;;;;;15.43;7.07;;;12.70;99.90;;;;;;5032092;28;20160;-79
2021/11/13 06:11:57;;;;;;;8.13;6.78;;;12.70;99.90;;;;;;5032682;28;20200;-78
2021/11/13 06:14:23;;;;;;;7.60;6.75;;;12.70;99.90;;;;;;5036075;28;20160;-79
2021/11/13 06:16:48;;;;;;;7.63;6.82;;;12.80;99.90;;;;;;5036093;28;20194;-79
2021/11/13 06:19:14;;;;;;;9.65;6.70;;;12.60;99.90;;;;;;5035811;28;20282;-78
2021/11/13 06:21:40;;;;;;;11.13;6.82;;;12.70;99.90;;;;;;5035875;28;20184;-79
2021/11/13 06:24:07;;;;;;;12.43;6.50;;;12.70;99.90;;;;;;5036083;28;20668;-80
2021/11/13 06:26:33;;;;;;;10.27;6.82;;;12.80;99.90;;;;;;5035953;28;20175;-79
2021/11/13 06:28:59;;;;;;;11.57;8.13;;;13.00;99.90;;;;;;5035553;28;20171;-79
2021/11/13 06:31:25;;;;;;;8.13;6.40;;;12.90;99.90;;;;;;5035351;28;20180;-82
2021/11/13 06:33:50;;;;;;;8.27;7.47;;;12.80;99.90;;;;;;5035787;28;20203;-79
2021/11/13 06:36:16;;;;;;;11.90;6.43;;;12.90;99.90;;;;;;5035764;28;20164;-79
2021/11/13 06:38:41;;;;;;;11.32;6.25;;;13.00;99.90;;;;;;5035398;28;20246;-79
2021/11/13 06:41:07;;;;;;;16.25;6.75;;;13.00;99.90;;;;;;5035020;28;20208;-79
2021/11/13 06:43:33;;;;;;;7.95;6.85;;;12.80;99.90;;;;;;5035220;28;20179;-79
2021/11/13 06:45:58;;;;;;;19.77;6.68;;;12.80;99.90;;;;;;5035356;28;20172;-79
2021/11/13 06:48:25;;;;;;;8.98;5.70;;;12.70;99.90;;;;;;5035519;28;20167;-79
2021/11/13 06:50:52;;;;;;;10.77;6.32;;;12.70;99.90;;;;;;5035007;28;20203;-79
2021/11/13 06:53:19;;;;;;;10.30;6.03;;;12.70;99.90;;;;;;5034985;28;20179;-80
2021/11/13 06:55:46;;;;;;;11.70;5.78;;;12.80;99.90;;;;;;5035242;28;20160;-79
2021/11/13 06:58:12;;;;;;;9.93;6.05;;;12.80;99.90;;;;;;5034691;28;20230;-79
2021/11/13 07:00:38;;;;;;;9.15;5.80;;;12.90;99.90;;;;;;5033604;28;20196;-79
2021/11/13 07:03:04;;;;;;;12.30;5.45;;;12.80;99.90;;;;;;5034913;28;20612;-81
2021/11/13 07:05:30;;;;;;;10.30;6.22;;;12.80;99.90;;;;;;5034252;28;20179;-81
2021/11/13 07:07:57;;;;;;;7.78;5.20;;;12.60;99.90;;;;;;5034660;28;20673;-79
2021/11/13 07:10:23;;;;;;;10.15;4.85;;;12.50;99.90;;;;;;5034303;28;20682;-80
2021/11/13 07:12:49;;;;;;;9.43;5.30;;;12.50;99.90;;;;;;5035034;28;20180;-79
2021/11/13 07:15:17;;;;;;;10.18;5.15;;;12.50;99.90;;;;;;5035088;28;20679;-81
2021/11/13 07:17:43;;;;;;;6.15;4.25;;;12.40;99.90;;;;;;5033497;28;20294;-81
2021/11/13 07:20:11;;;;;;;8.77;4.10;;;12.40;99.90;;;;;;5033047;28;20733;-78
2021/11/13 07:22:39;;;;;;;5.00;4.30;;;12.40;99.90;;;;;;5033947;28;20242;-79
2021/11/13 07:25:12;;;;;;;7.03;3.28;;;12.30;99.90;;;;;;5032707;28;20164;-79
2021/11/13 07:27:38;;;;;;;7.70;3.78;;;12.20;99.90;;;;;;5034148;28;20263;-79
2021/11/13 07:30:04;;;;;;;7.07;3.10;;;12.30;99.90;;;;;;5034403;28;20230;-81
2021/11/13 07:32:31;;;;;;;7.50;4.05;;;12.20;99.90;;;;;;5034510;28;20196;-80
2021/11/13 07:34:58;;;;;;;6.80;3.28;;;12.40;99.90;;;;;;5034282;28;20258;-79
2021/11/13 07:37:24;;;;;;;5.57;2.97;;;12.20;99.90;;;;;;5034237;28;20176;-79
2021/11/13 07:39:52;;;;;;;6.70;3.65;;;12.10;99.90;;;;;;5034083;28;20172;-79
2021/11/13 07:42:18;;;;;;;5.32;3.05;;;12.10;99.90;;;;;;5034247;28;20195;-78
2021/11/13 07:44:43;;;;;;;5.38;3.10;;;12.10;99.90;;;;;;5032872;28;20608;-79
2021/11/13 07:47:09;;;;;;;5.05;3.22;;;12.10;99.90;;;;;;5033008;28;20174;-78
2021/11/13 07:49:35;;;;;;;9.07;3.97;;;12.10;99.90;;;;;;5033570;28;20237;-78
2021/11/13 07:52:01;;;;;;;5.43;4.30;;;12.20;99.90;;;;;;5033643;28;20577;-78
2021/11/13 07:54:27;;;;;;;12.23;4.25;;;12.30;99.90;;;;;;5033859;28;20156;-78
2021/11/13 07:56:53;;;;;;;8.98;4.60;;;12.30;99.90;;;;;;5034219;28;20222;-78
2021/11/13 07:59:18;;;;;;;11.75;4.60;;;12.20;99.90;;;;;;5033894;28;20695;-78
2021/11/13 08:01:44;;;;;;;6.53;4.78;;;12.20;99.90;;;;;;5033818;28;20191;-78
2021/11/13 08:04:10;;;;;;;11.65;4.55;;;12.40;99.90;;;;;;5032343;28;20669;-79
2021/11/13 08:06:35;;;;;;;6.97;4.30;;;12.50;99.90;;;;;;5033465;28;20567;-79
2021/11/13 08:09:01;;;;;;;6.57;3.95;;;12.40;99.90;;;;;;5033621;28;20175;-81
2021/11/13 08:11:27;;;;;;;10.23;4.68;;;12.60;99.90;;;;;;5033515;28;20218;-79
2021/11/13 08:13:52;;;;;;;16.60;4.53;;;12.70;99.90;;;;;;5033568;28;20647;-79
2021/11/13 08:16:18;;;;;;;5.88;4.13;;;12.60;99.90;;;;;;5032330;28;20183;-79
2021/11/13 08:18:44;;;;;;;5.32;3.80;;;12.60;99.90;;;;;;5031758;28;20564;-78
2021/11/13 08:21:11;;;;;;;5.38;3.70;;;12.70;99.90;;;;;;5033150;28;20260;-78
2021/11/13 08:23:37;;;;;;;10.27;4.60;;;12.70;99.90;;;;;;5033312;28;20514;-79
2021/11/13 08:26:03;;;;;;;7.55;4.00;;;12.70;99.90;;;;;;5033275;28;20188;-77
2021/11/13 08:28:29;;;;;;;5.35;3.65;;;12.70;99.90;;;;;;5033341;28;20530;-78
2021/11/13 08:30:54;;;;;;;5.63;3.67;;;12.70;99.90;;;;;;5032174;28;20194;-79
2021/11/13 08:33:21;;;;;;;5.60;3.90;;;12.60;99.90;;;;;;5031870;28;20184;-78
2021/11/13 08:35:48;;;;;;;6.47;4.38;;;12.80;99.90;;;;;;5032647;28;20167;-81
2021/11/13 08:38:16;;;;;;;8.98;3.88;;;12.60;99.90;;;;;;5032778;28;20680;-79
2021/11/13 08:40:42;;;;;;;4.82;3.63;;;12.60;99.90;;;;;;5031966;28;20226;-80
2021/11/13 08:43:09;;;;;;;10.02;4.50;;;12.70;99.90;;;;;;5032940;28;20191;-79
2021/11/13 08:45:35;;;;;;;5.45;4.22;;;12.70;99.90;;;;;;5032935;28;20164;-79
2021/11/13 08:48:01;;;;;;;9.65;4.05;;;12.80;99.90;;;;;;5032391;28;20168;-78
2021/11/13 08:50:30;;;;;;;6.63;3.38;;;12.60;99.90;;;;;;5030845;28;20188;-78
2021/11/13 08:52:58;;;;;;;10.85;4.20;;;12.60;99.90;;;;;;5032257;28;20174;-78
2021/11/13 08:55:26;;;;;;;8.02;4.38;;;12.60;99.90;;;;;;5031055;28;20164;-80
2021/11/13 08:57:52;;;;;;;4.18;3.75;;;12.60;99.90;;;;;;5032341;28;20199;-79
2021/11/13 09:00:28;;;;;;;6.95;4.25;;;12.70;99.90;;;;;;5032300;28;20184;-77
2021/11/13 09:02:55;;;;;;;10.80;5.25;;;12.80;99.90;;;;;;5032779;28;20155;-77
2021/11/13 09:05:21;;;;;;;24.95;5.93;;;12.80;99.90;;;;;;5032658;28;20168;-78
2021/11/13 09:07:47;;;;;;;11.13;4.60;;;12.90;99.90;;;;;;5032787;28;20172;-82
2021/11/13 09:10:13;;;;;;;12.38;4.78;;;13.10;99.90;;;;;;5032608;28;20191;-78
2021/11/13 09:12:39;;;;;;;14.85;6.28;;;13.20;99.90;;;;;;5032307;28;20254;-77
2021/11/13 09:15:14;;;;;;;10.77;5.03;;;13.20;99.90;;;;;;5032095;28;20192;-78
2021/11/13 09:17:41;;;;;;;7.45;4.45;;;13.20;99.90;;;;;;5032262;28;20225;-78
2021/11/13 09:20:07;;;;;;;9.95;4.82;;;13.00;99.90;;;;;;5029382;28;20625;-78
2021/11/13 09:22:33;;;;;;;8.32;4.03;;;12.90;99.90;;;;;;5030246;28;20263;-78
2021/11/13 09:24:59;;;;;;;12.27;4.38;;;12.80;99.90;;;;;;5049141;28;20183;-80
2021/11/13 09:27:25;;;;;;;6.55;4.68;;;12.80;99.90;;;;;;5031853;28;20160;-78
2021/11/13 09:29:51;;;;;;;5.38;4.80;;;12.90;99.90;;;;;;5031417;28;20241;-78
2021/11/13 09:32:18;;;;;;;9.57;4.53;;;13.00;99.90;;;;;;5030907;28;20207;-78
2021/11/13 09:34:43;;;;;;;4.38;3.97;;;13.10;99.90;;;;;;5031356;28;20243;-79
2021/11/13 09:37:09;;;;;;;5.18;4.45;;;13.10;99.90;;;;;;5030593;28;20636;-79
2021/11/13 09:39:35;;;;;;;7.65;4.80;;;13.10;99.90;;;;;;5031331;28;20214;-79
2021/11/13 09:42:02;;;;;;;4.70;4.20;;;13.20;99.90;;;;;;5030642;28;20237;-79
2021/11/13 09:44:28;;;;;;;5.47;4.40;;;13.30;99.90;;;;;;5031046;28;20568;-79
2021/11/13 09:46:59;;;;;;;8.02;4.18;;;13.50;99.90;;;;;;5034747;28;20221;-81
2021/11/13 09:49:27;;;;;;;5.15;4.00;;;13.50;99.90;;;;;;5036637;28;20184;-80
2021/11/13 09:51:53;;;;;;;7.32;5.13;;;13.60;99.90;;;;;;5035737;28;20202;-80
2021/11/13 09:54:19;;;;;;;10.63;4.85;;;13.50;99.90;;;;;;5037443;28;20172;-79
2021/11/13 09:56:44;;;;;;;9.18;5.20;;;13.60;99.90;;;;;;5037603;28;20168;-80
2021/11/13 09:59:10;;;;;;;6.25;4.93;;;13.80;99.90;;;;;;5037258;28;20559;-81
2021/11/13 10:01:36;;;;;;;12.65;5.93;;;13.90;99.90;;;;;;5036192;28;20187;-80
2021/11/13 10:04:02;;;;;;;6.70;5.00;;;13.70;99.90;;;;;;5036417;28;20254;-79
2021/11/13 10:06:28;;;;;;;7.18;4.28;;;13.80;99.90;;;;;;5037406;28;20628;-80
2021/11/13 10:08:53;;;;;;;9.32;4.03;;;13.70;99.90;;;;;;5036943;28;20627;-80
2021/11/13 10:11:25;;;;;;;4.78;4.00;;;13.80;99.90;;;;;;5035950;28;20199;-78
2021/11/13 10:13:53;;;;;;;5.53;3.72;;;13.90;99.90;;;;;;5036524;28;20172;-79
2021/11/13 10:16:31;;;;;;;6.32;3.50;;;13.80;99.90;;;;;;5036169;28;20171;-79
2021/11/13 10:18:57;;;;;;;4.70;3.90;;;13.80;99.90;;;;;;5036584;28;20203;-78
2021/11/13 10:21:25;;;;;;;8.57;4.00;;;13.60;99.90;;;;;;5036104;28;20210;-78
2021/11/13 10:23:57;;;;;;;4.00;3.60;;;13.50;99.90;;;;;;5037277;28;20160;-78
2021/11/13 10:26:24;;;;;;;6.57;3.67;;;13.40;99.90;;;;;;5036886;28;20218;-80
2021/11/13 10:29:00;;;;;;;5.88;4.32;;;13.40;99.90;;;;;;5037099;28;20180;-79
2021/11/13 10:31:35;;;;;;;6.57;3.50;;;13.40;99.90;;;;;;5036814;28;20215;-80
2021/11/13 10:34:04;;;;;;;5.70;3.38;;;13.30;99.90;;;;;;5037203;28;20193;-79
2021/11/13 10:36:35;;;;;;;6.72;3.42;;;13.10;99.90;;;;;;5037602;28;20199;-77
2021/11/13 10:39:15;;;;;;;4.75;3.90;;;13.10;99.90;;;;;;5036929;28;20203;-78
2021/11/13 10:41:48;;;;;;;5.93;3.05;;;13.20;99.90;;;;;;5038285;28;20190;-79
2021/11/13 10:44:17;;;;;;;6.47;3.35;;;13.10;99.90;;;;;;5038119;28;20179;-79
2021/11/13 10:46:44;;;;;;;5.10;3.40;;;13.10;99.90;;;;;;5037901;28;20214;-80
2021/11/13 10:49:11;;;;;;;3.03;2.75;;;13.20;99.90;;;;;;5038196;28;20218;-80
2021/11/13 10:51:38;;;;;;;3.95;3.15;;;13.30;99.90;;;;;;5035803;28;20214;-80
2021/11/13 10:54:15;;;;;;;4.88;3.28;;;13.30;99.90;;;;;;5038249;28;20662;-81
2021/11/13 10:56:47;;;;;;;4.43;3.50;;;13.30;99.90;;;;;;5038204;28;20167;-80
2021/11/13 10:59:13;;;;;;;4.05;3.65;;;13.40;99.90;;;;;;5035048;28;20208;-79
2021/11/13 11:01:48;;;;;;;3.88;3.10;;;13.60;99.90;;;;;;5033679;28;20206;-78
2021/11/13 11:04:22;;;;;;;3.40;2.55;;;13.70;99.90;;;;;;5034579;28;20178;-81
2021/11/13 11:06:53;;;;;;;4.15;3.00;;;13.80;99.90;;;;;;5033527;28;20171;-78
2021/11/13 11:09:25;;;;;;;5.90;3.55;;;13.70;99.90;;;;;;5034852;28;20172;-78
2021/11/13 11:12:15;;;;;;;7.75;4.25;;;13.90;99.90;;;;;;5034949;28;20179;-79
2021/11/13 11:14:47;;;;;;;9.18;5.25;;;13.90;99.90;;;;;;5035043;28;20171;-79
2021/11/13 11:17:18;;;;;;;6.50;3.50;;;13.90;99.90;;;;;;5035025;28;20236;-80
2021/11/13 11:19:47;;;;;;;7.38;3.63;;;13.90;99.90;;;;;;5033155;28;20234;-81
2021/11/13 11:22:15;;;;;;;8.43;4.35;;;14.00;99.90;;;;;;5034332;28;20160;-80
2021/11/13 11:24:45;;;;;;;8.57;6.68;;;14.10;99.90;;;;;;5034949;28;20207;-79
2021/11/13 11:27:19;;;;;;;5.57;3.55;;;14.10;99.90;;;;;;5032792;28;20255;-81
2021/11/13 11:29:58;;;;;;;4.32;2.85;;;14.00;99.90;;;;;;5034089;28;20627;-85
2021/11/13 11:32:29;;;;;;;4.15;2.60;;;14.10;99.90;;;;;;5033180;28;20534;-81
2021/11/13 11:34:57;;;;;;;6.72;3.58;;;14.10;99.90;;;;;;5034546;28;20179;-81
2021/11/13 11:37:26;;;;;;;5.00;3.50;;;14.10;99.90;;;;;;5032648;28;20539;-82
2021/11/13 11:39:54;;;;;;;6.70;4.30;;;14.10;99.90;;;;;;5034083;28;20204;-82
2021/11/13 11:42:20;;;;;;;10.02;3.40;;;14.00;99.90;;;;;;5033163;28;20160;-91
2021/11/13 11:44:48;;;;;;;4.25;3.80;;;14.00;99.90;;;;;;5034531;28;20302;-80
2021/11/13 11:47:19;;;;;;;5.55;3.38;;;13.90;99.90;;;;;;5033737;28;20193;-80
2021/11/13 11:49:53;;;;;;;5.57;3.15;;;14.00;99.90;;;;;;5032858;28;20168;-81
2021/11/13 11:52:21;;;;;;;4.30;3.47;;;14.10;99.90;;;;;;5034529;28;20254;-86
2021/11/13 11:54:49;;;;;;;3.80;3.22;;;14.30;99.90;;;;;;5032741;28;20218;-81
2021/11/13 11:57:15;;;;;;;4.57;3.90;;;14.30;99.90;;;;;;5033844;28;20168;-80
2021/11/13 11:59:42;;;;;;;8.10;4.72;;;14.30;99.90;;;;;;5032300;28;20211;-80
2021/11/13 12:02:17;;;;;;;4.20;3.80;;;14.40;99.90;;;;;;5033910;28;20184;-80
2021/11/13 12:04:44;;;;;;;8.88;4.10;;;14.70;99.90;;;;;;5033667;28;20182;-80
2021/11/13 12:07:13;;;;;;;6.20;3.00;;;14.70;99.90;;;;;;5032217;28;20509;-80
2021/11/13 12:10:00;;;;;;;3.65;3.35;;;14.70;99.90;;;;;;5031605;28;20171;-81
2021/11/13 12:12:27;;;;;;;6.00;3.75;;;14.60;99.90;;;;;;5033433;28;20221;-82
2021/11/13 12:15:09;;;;;;;6.38;3.42;;;14.70;99.90;;;;;;5033392;28;20210;-81
2021/11/13 12:17:35;;;;;;;6.75;2.80;;;14.80;99.90;;;;;;5033747;28;20243;-82
2021/11/13 12:20:04;;;;;;;4.53;3.28;;;14.80;99.90;;;;;;5033768;28;20221;-81
2021/11/13 12:22:42;;;;;;;3.28;2.88;;;14.90;99.90;;;;;;5034326;28;20168;-79
2021/11/13 12:25:20;;;;;;;3.25;2.60;;;15.00;99.90;;;;;;5034142;28;20250;-79
2021/11/13 12:28:05;;;;;;;5.30;2.50;;;15.00;99.90;;;;;;5034149;28;20199;-79
2021/11/13 12:30:53;;;;;;;5.47;2.70;;;15.00;99.90;;;;;;5032628;28;20689;-79
2021/11/13 12:33:24;;;;;;;4.30;1.85;;;14.70;99.90;;;;;;5032958;28;20229;-79
2021/11/13 12:35:54;;;;;;;6.40;2.80;;;14.60;99.90;;;;;;5033025;28;20438;-80
2021/11/13 12:38:38;;;;;;;2.55;2.00;;;14.80;99.90;;;;;;5033113;28;20218;-80
2021/11/13 12:41:16;;;;;;;4.53;2.97;;;15.00;99.90;;;;;;5031852;28;20665;-80